sensor_id;sensor_type;location;lat;lon;timestamp;P1;durP1;ratioP1;P2;durP2;ratioP2
59109;SDS011;44895;47.438;18.978;2023-11-19T06:30:18;13.45;;;9.30;;
59109;SDS011;44895;47.438;18.978;2023-11-19T06:33:22;18.70;;;9.68;;
59109;SDS011;44895;47.438;18.978;2023-11-19T06:36:26;14.95;;;7.70;;
59109;SDS011;44895;47.438;18.978;2023-11-19T06:39:30;13.73;;;6.97;;
59109;SDS011;44895;47.438;18.978;2023-11-19T06:42:35;13.55;;;8.20;;
59109;SDS011;44895;47.438;18.978;2023-11-19T06:45:38;16.77;;;10.25;;
59109;SDS011;44895;47.438;18.978;2023-11-19T06:48:42;15.32;;;8.48;;
59109;SDS011;44895;47.438;18.978;2023-11-19T06:51:47;15.95;;;9.10;;
59109;SDS011;44895;47.438;18.978;2023-11-19T06:54:50;20.17;;;10.30;;
59109;SDS011;44895;47.438;18.978;2023-11-19T06:57:54;16.45;;;9.05;;
59109;SDS011;44895;47.438;18.978;2023-11-19T07:00:58;15.15;;;9.10;;
59109;SDS011;44895;47.438;18.978;2023-11-19T07:04:02;19.17;;;10.80;;
59109;SDS011;44895;47.438;18.978;2023-11-19T07:07:12;16.33;;;11.05;;
59109;SDS011;44895;47.438;18.978;2023-11-19T07:10:18;12.93;;;8.30;;
59109;SDS011;44895;47.438;18.978;2023-11-19T07:13:21;12.52;;;8.45;;
59109;SDS011;44895;47.438;18.978;2023-11-19T07:16:25;13.50;;;8.60;;
59109;SDS011;44895;47.438;18.978;2023-11-19T07:19:29;16.27;;;9.70;;
59109;SDS011;44895;47.438;18.978;2023-11-19T07:22:33;15.55;;;8.30;;
59109;SDS011;44895;47.438;18.978;2023-11-19T07:25:36;15.38;;;8.98;;
59109;SDS011;44895;47.438;18.978;2023-11-19T07:28:40;17.48;;;10.77;;
59109;SDS011;44895;47.438;18.978;2023-11-19T07:31:44;14.82;;;7.90;;
59109;SDS011;44895;47.438;18.978;2023-11-19T07:34:47;15.20;;;8.77;;
59109;SDS011;44895;47.438;18.978;2023-11-19T07:37:51;15.63;;;8.60;;
59109;SDS011;44895;47.438;18.978;2023-11-19T07:40:56;19.58;;;9.02;;
59109;SDS011;44895;47.438;18.978;2023-11-19T07:44:00;17.10;;;9.80;;
59109;SDS011;44895;47.438;18.978;2023-11-19T07:47:04;15.18;;;8.30;;
59109;SDS011;44895;47.438;18.978;2023-11-19T07:50:08;14.10;;;8.75;;
59109;SDS011;44895;47.438;18.978;2023-11-19T07:53:13;18.00;;;9.05;;
59109;SDS011;44895;47.438;18.978;2023-11-19T07:56:17;17.63;;;10.35;;
59109;SDS011;44895;47.438;18.978;2023-11-19T07:59:21;17.65;;;10.85;;
59109;SDS011;44895;47.438;18.978;2023-11-19T08:02:25;15.52;;;9.23;;
59109;SDS011;44895;47.438;18.978;2023-11-19T08:05:28;17.65;;;10.20;;
59109;SDS011;44895;47.438;18.978;2023-11-19T08:08:32;14.20;;;8.85;;
59109;SDS011;44895;47.438;18.978;2023-11-19T08:11:38;17.80;;;10.27;;
59109;SDS011;44895;47.438;18.978;2023-11-19T08:14:43;16.85;;;8.68;;
59109;SDS011;44895;47.438;18.978;2023-11-19T08:17:47;16.10;;;9.43;;
59109;SDS011;44895;47.438;18.978;2023-11-19T08:20:51;19.17;;;10.95;;
59109;SDS011;44895;47.438;18.978;2023-11-19T08:23:56;23.25;;;12.90;;
59109;SDS011;44895;47.438;18.978;2023-11-19T08:27:00;20.30;;;12.10;;
59109;SDS011;44895;47.438;18.978;2023-11-19T08:30:04;18.52;;;13.57;;
59109;SDS011;44895;47.438;18.978;2023-11-19T08:33:09;18.23;;;11.07;;
59109;SDS011;44895;47.438;18.978;2023-11-19T08:36:16;24.73;;;13.63;;
59109;SDS011;44895;47.438;18.978;2023-11-19T08:39:20;18.10;;;11.25;;
59109;SDS011;44895;47.438;18.978;2023-11-19T08:42:26;18.38;;;12.80;;
59109;SDS011;44895;47.438;18.978;2023-11-19T08:45:31;19.35;;;11.63;;
59109;SDS011;44895;47.438;18.978;2023-11-19T08:48:35;19.05;;;12.20;;
59109;SDS011;44895;47.438;18.978;2023-11-19T08:51:38;18.40;;;10.90;;
59109;SDS011;44895;47.438;18.978;2023-11-19T08:54:43;13.70;;;9.70;;
59109;SDS011;44895;47.438;18.978;2023-11-19T08:57:47;16.50;;;9.70;;
59109;SDS011;44895;47.438;18.978;2023-11-19T09:00:50;15.23;;;9.75;;
59109;SDS011;44895;47.438;18.978;2023-11-19T09:03:54;16.25;;;10.40;;
59109;SDS011;44895;47.438;18.978;2023-11-19T09:06:58;15.98;;;10.63;;
59109;SDS011;44895;47.438;18.978;2023-11-19T09:10:02;14.55;;;9.98;;
59109;SDS011;44895;47.438;18.978;2023-11-19T09:13:08;19.00;;;12.68;;
59109;SDS011;44895;47.438;18.978;2023-11-19T09:16:11;21.23;;;12.38;;
59109;SDS011;44895;47.438;18.978;2023-11-19T09:19:15;18.70;;;12.65;;
59109;SDS011;44895;47.438;18.978;2023-11-19T09:22:20;20.08;;;11.85;;
59109;SDS011;44895;47.438;18.978;2023-11-19T09:25:24;23.60;;;13.43;;
59109;SDS011;44895;47.438;18.978;2023-11-19T09:28:28;19.35;;;12.20;;
59109;SDS011;44895;47.438;18.978;2023-11-19T09:31:32;18.52;;;12.18;;
59109;SDS011;44895;47.438;18.978;2023-11-19T09:34:35;17.88;;;10.70;;
59109;SDS011;44895;47.438;18.978;2023-11-19T09:37:39;17.98;;;11.52;;
59109;SDS011;44895;47.438;18.978;2023-11-19T09:40:43;17.67;;;12.18;;
59109;SDS011;44895;47.438;18.978;2023-11-19T09:43:46;18.25;;;10.52;;
59109;SDS011;44895;47.438;18.978;2023-11-19T09:46:50;22.20;;;12.43;;
59109;SDS011;44895;47.438;18.978;2023-11-19T09:49:55;17.13;;;10.93;;
59109;SDS011;44895;47.438;18.978;2023-11-19T09:52:59;19.50;;;11.38;;
59109;SDS011;44895;47.438;18.978;2023-11-19T09:56:03;17.45;;;10.52;;
59109;SDS011;44895;47.438;18.978;2023-11-19T09:59:08;18.17;;;11.88;;
59109;SDS011;44895;47.438;18.978;2023-11-19T10:02:14;15.80;;;10.80;;
59109;SDS011;44895;47.438;18.978;2023-11-19T10:05:17;15.30;;;9.10;;
59109;SDS011;44895;47.438;18.978;2023-11-19T10:08:23;17.48;;;11.10;;
59109;SDS011;44895;47.438;18.978;2023-11-19T10:11:27;17.48;;;9.50;;
59109;SDS011;44895;47.438;18.978;2023-11-19T10:14:31;17.00;;;11.13;;
59109;SDS011;44895;47.438;18.978;2023-11-19T10:17:36;15.30;;;9.85;;
59109;SDS011;44895;47.438;18.978;2023-11-19T10:20:40;17.30;;;10.65;;
59109;SDS011;44895;47.438;18.978;2023-11-19T10:23:48;16.42;;;10.00;;
59109;SDS011;44895;47.438;18.978;2023-11-19T10:26:53;16.05;;;10.60;;
59109;SDS011;44895;47.438;18.978;2023-11-19T10:30:00;17.27;;;11.93;;
59109;SDS011;44895;47.438;18.978;2023-11-19T10:33:08;17.27;;;11.95;;
59109;SDS011;44895;47.438;18.978;2023-11-19T10:36:13;21.48;;;11.65;;
59109;SDS011;44895;47.438;18.978;2023-11-19T10:39:17;25.92;;;12.60;;
59109;SDS011;44895;47.438;18.978;2023-11-19T10:42:21;16.98;;;12.60;;
59109;SDS011;44895;47.438;18.978;2023-11-19T10:45:25;17.75;;;11.50;;
59109;SDS011;44895;47.438;18.978;2023-11-19T10:48:28;15.45;;;9.82;;
59109;SDS011;44895;47.438;18.978;2023-11-19T10:51:33;14.75;;;9.52;;
59109;SDS011;44895;47.438;18.978;2023-11-19T10:54:37;14.90;;;10.07;;
59109;SDS011;44895;47.438;18.978;2023-11-19T10:57:47;14.30;;;10.15;;
59109;SDS011;44895;47.438;18.978;2023-11-19T11:00:57;17.90;;;10.57;;
59109;SDS011;44895;47.438;18.978;2023-11-19T11:04:03;17.63;;;10.98;;
59109;SDS011;44895;47.438;18.978;2023-11-19T11:07:09;16.52;;;11.52;;
59109;SDS011;44895;47.438;18.978;2023-11-19T11:10:13;15.43;;;10.05;;
59109;SDS011;44895;47.438;18.978;2023-11-19T11:13:19;18.48;;;12.15;;
59109;SDS011;44895;47.438;18.978;2023-11-19T11:16:23;20.08;;;11.13;;
59109;SDS011;44895;47.438;18.978;2023-11-19T11:19:28;16.42;;;10.27;;
59109;SDS011;44895;47.438;18.978;2023-11-19T11:22:33;18.00;;;10.63;;
59109;SDS011;44895;47.438;18.978;2023-11-19T11:29:31;13.57;;;7.97;;
59109;SDS011;44895;47.438;18.978;2023-11-19T11:39:21;16.42;;;9.65;;
59109;SDS011;44895;47.438;18.978;2023-11-19T11:45:37;16.75;;;10.55;;
59109;SDS011;44895;47.438;18.978;2023-11-19T11:48:43;14.88;;;10.23;;
59109;SDS011;44895;47.438;18.978;2023-11-19T11:51:58;19.65;;;12.45;;
59109;SDS011;44895;47.438;18.978;2023-11-19T11:55:04;16.27;;;9.98;;
59109;SDS011;44895;47.438;18.978;2023-11-19T11:58:11;14.63;;;10.38;;
59109;SDS011;44895;47.438;18.978;2023-11-19T12:01:15;16.63;;;11.00;;
59109;SDS011;44895;47.438;18.978;2023-11-19T12:04:25;14.68;;;10.15;;
59109;SDS011;44895;47.438;18.978;2023-11-19T12:07:30;22.10;;;12.38;;
59109;SDS011;44895;47.438;18.978;2023-11-19T12:10:38;16.85;;;10.85;;
59109;SDS011;44895;47.438;18.978;2023-11-19T12:13:55;17.95;;;11.13;;
59109;SDS011;44895;47.438;18.978;2023-11-19T12:17:29;17.80;;;10.90;;
59109;SDS011;44895;47.438;18.978;2023-11-19T12:20:36;18.58;;;11.77;;
59109;SDS011;44895;47.438;18.978;2023-11-19T12:23:44;20.48;;;13.00;;
59109;SDS011;44895;47.438;18.978;2023-11-19T12:26:51;20.17;;;11.65;;
59109;SDS011;44895;47.438;18.978;2023-11-19T12:29:57;20.40;;;11.02;;
59109;SDS011;44895;47.438;18.978;2023-11-19T12:33:07;15.77;;;10.00;;
59109;SDS011;44895;47.438;18.978;2023-11-19T12:36:13;17.70;;;11.25;;
59109;SDS011;44895;47.438;18.978;2023-11-19T12:39:17;14.15;;;8.88;;
59109;SDS011;44895;47.438;18.978;2023-11-19T12:42:34;14.35;;;8.80;;
59109;SDS011;44895;47.438;18.978;2023-11-19T12:45:39;15.30;;;10.02;;
59109;SDS011;44895;47.438;18.978;2023-11-19T12:48:43;14.40;;;9.02;;
59109;SDS011;44895;47.438;18.978;2023-11-19T12:51:46;15.07;;;10.07;;
59109;SDS011;44895;47.438;18.978;2023-11-19T12:54:50;16.00;;;8.55;;
59109;SDS011;44895;47.438;18.978;2023-11-19T12:57:54;18.33;;;10.18;;
59109;SDS011;44895;47.438;18.978;2023-11-19T13:00:59;16.60;;;9.85;;
59109;SDS011;44895;47.438;18.978;2023-11-19T13:04:17;16.35;;;8.65;;
59109;SDS011;44895;47.438;18.978;2023-11-19T13:07:21;13.88;;;8.27;;
59109;SDS011;44895;47.438;18.978;2023-11-19T13:10:25;14.75;;;8.55;;
59109;SDS011;44895;47.438;18.978;2023-11-19T13:13:29;17.35;;;8.55;;
59109;SDS011;44895;47.438;18.978;2023-11-19T13:16:33;15.13;;;9.13;;
59109;SDS011;44895;47.438;18.978;2023-11-19T13:19:37;13.27;;;8.10;;
59109;SDS011;44895;47.438;18.978;2023-11-19T13:22:53;14.88;;;9.05;;
59109;SDS011;44895;47.438;18.978;2023-11-19T13:26:04;14.68;;;7.97;;
59109;SDS011;44895;47.438;18.978;2023-11-19T13:29:08;13.73;;;8.98;;
59109;SDS011;44895;47.438;18.978;2023-11-19T13:32:13;14.48;;;8.55;;
59109;SDS011;44895;47.438;18.978;2023-11-19T13:35:18;15.32;;;10.10;;
59109;SDS011;44895;47.438;18.978;2023-11-19T13:38:22;17.08;;;9.57;;
59109;SDS011;44895;47.438;18.978;2023-11-19T13:41:28;13.10;;;8.30;;
59109;SDS011;44895;47.438;18.978;2023-11-19T13:44:32;12.43;;;8.15;;
59109;SDS011;44895;47.438;18.978;2023-11-19T13:47:36;14.95;;;8.98;;
59109;SDS011;44895;47.438;18.978;2023-11-19T13:50:40;16.33;;;8.98;;
59109;SDS011;44895;47.438;18.978;2023-11-19T13:53:45;21.38;;;9.27;;
59109;SDS011;44895;47.438;18.978;2023-11-19T13:56:49;11.35;;;7.38;;
59109;SDS011;44895;47.438;18.978;2023-11-19T13:59:52;12.73;;;8.77;;
59109;SDS011;44895;47.438;18.978;2023-11-19T14:02:56;13.57;;;8.48;;
59109;SDS011;44895;47.438;18.978;2023-11-19T14:06:00;15.55;;;9.60;;
59109;SDS011;44895;47.438;18.978;2023-11-19T14:09:04;15.07;;;7.65;;
59109;SDS011;44895;47.438;18.978;2023-11-19T14:12:10;13.27;;;8.55;;
59109;SDS011;44895;47.438;18.978;2023-11-19T14:15:15;18.38;;;11.07;;
59109;SDS011;44895;47.438;18.978;2023-11-19T14:18:23;16.30;;;10.48;;
59109;SDS011;44895;47.438;18.978;2023-11-19T14:21:26;15.50;;;9.43;;
59109;SDS011;44895;47.438;18.978;2023-11-19T14:24:31;14.82;;;9.35;;
59109;SDS011;44895;47.438;18.978;2023-11-19T14:27:38;14.95;;;10.07;;
59109;SDS011;44895;47.438;18.978;2023-11-19T14:30:42;14.65;;;9.35;;
59109;SDS011;44895;47.438;18.978;2023-11-19T14:33:48;15.25;;;9.07;;
59109;SDS011;44895;47.438;18.978;2023-11-19T14:36:52;15.80;;;10.68;;
59109;SDS011;44895;47.438;18.978;2023-11-19T14:39:57;18.80;;;11.10;;
59109;SDS011;44895;47.438;18.978;2023-11-19T14:43:13;14.70;;;9.13;;
59109;SDS011;44895;47.438;18.978;2023-11-19T14:46:18;17.65;;;10.65;;
59109;SDS011;44895;47.438;18.978;2023-11-19T14:49:22;23.23;;;13.30;;
59109;SDS011;44895;47.438;18.978;2023-11-19T14:52:27;20.67;;;12.50;;
59109;SDS011;44895;47.438;18.978;2023-11-19T14:55:31;20.17;;;12.70;;
59109;SDS011;44895;47.438;18.978;2023-11-19T14:58:35;19.50;;;12.05;;
59109;SDS011;44895;47.438;18.978;2023-11-19T15:01:39;15.93;;;12.43;;
59109;SDS011;44895;47.438;18.978;2023-11-19T15:04:44;20.58;;;14.70;;
59109;SDS011;44895;47.438;18.978;2023-11-19T15:07:47;18.92;;;10.95;;
59109;SDS011;44895;47.438;18.978;2023-11-19T15:10:51;20.55;;;13.48;;
59109;SDS011;44895;47.438;18.978;2023-11-19T15:13:56;22.40;;;11.73;;
59109;SDS011;44895;47.438;18.978;2023-11-19T15:16:59;18.65;;;11.60;;
59109;SDS011;44895;47.438;18.978;2023-11-19T15:20:04;19.83;;;12.80;;
59109;SDS011;44895;47.438;18.978;2023-11-19T15:23:08;24.02;;;14.25;;
59109;SDS011;44895;47.438;18.978;2023-11-19T15:26:12;17.30;;;12.32;;
59109;SDS011;44895;47.438;18.978;2023-11-19T15:29:16;19.90;;;13.70;;
59109;SDS011;44895;47.438;18.978;2023-11-19T15:32:19;21.02;;;14.27;;
59109;SDS011;44895;47.438;18.978;2023-11-19T15:35:23;20.80;;;14.88;;
59109;SDS011;44895;47.438;18.978;2023-11-19T15:38:27;24.40;;;15.20;;
59109;SDS011;44895;47.438;18.978;2023-11-19T15:41:31;22.27;;;16.98;;
59109;SDS011;44895;47.438;18.978;2023-11-19T15:44:35;21.52;;;13.88;;
59109;SDS011;44895;47.438;18.978;2023-11-19T15:47:39;19.98;;;12.10;;
59109;SDS011;44895;47.438;18.978;2023-11-19T15:50:43;22.38;;;13.07;;
59109;SDS011;44895;47.438;18.978;2023-11-19T15:53:48;18.38;;;12.95;;
59109;SDS011;44895;47.438;18.978;2023-11-19T15:56:51;22.30;;;13.90;;
59109;SDS011;44895;47.438;18.978;2023-11-19T15:59:55;19.85;;;13.38;;
59109;SDS011;44895;47.438;18.978;2023-11-19T16:02:59;20.27;;;13.00;;
59109;SDS011;44895;47.438;18.978;2023-11-19T16:06:03;19.52;;;14.00;;
59109;SDS011;44895;47.438;18.978;2023-11-19T16:09:07;25.77;;;18.35;;
59109;SDS011;44895;47.438;18.978;2023-11-19T16:12:12;28.23;;;21.50;;
59109;SDS011;44895;47.438;18.978;2023-11-19T16:15:16;25.25;;;19.77;;
59109;SDS011;44895;47.438;18.978;2023-11-19T16:18:20;25.88;;;20.75;;
59109;SDS011;44895;47.438;18.978;2023-11-19T16:21:24;25.38;;;18.35;;
59109;SDS011;44895;47.438;18.978;2023-11-19T16:24:28;27.58;;;19.23;;
59109;SDS011;44895;47.438;18.978;2023-11-19T16:27:31;27.55;;;18.27;;
59109;SDS011;44895;47.438;18.978;2023-11-19T16:30:35;24.38;;;17.58;;
59109;SDS011;44895;47.438;18.978;2023-11-19T16:33:39;27.10;;;19.40;;
59109;SDS011;44895;47.438;18.978;2023-11-19T16:36:42;24.42;;;19.13;;
59109;SDS011;44895;47.438;18.978;2023-11-19T16:39:46;24.52;;;17.63;;
59109;SDS011;44895;47.438;18.978;2023-11-19T16:42:50;28.52;;;20.20;;
59109;SDS011;44895;47.438;18.978;2023-11-19T16:45:54;28.10;;;19.23;;
59109;SDS011;44895;47.438;18.978;2023-11-19T16:48:57;31.00;;;21.88;;
59109;SDS011;44895;47.438;18.978;2023-11-19T16:52:02;33.55;;;21.05;;
59109;SDS011;44895;47.438;18.978;2023-11-19T16:55:07;26.80;;;18.35;;
59109;SDS011;44895;47.438;18.978;2023-11-19T16:58:14;28.70;;;17.93;;
59109;SDS011;44895;47.438;18.978;2023-11-19T17:01:18;32.33;;;21.80;;
59109;SDS011;44895;47.438;18.978;2023-11-19T17:04:22;33.08;;;25.73;;
59109;SDS011;44895;47.438;18.978;2023-11-19T17:07:26;30.58;;;22.55;;
59109;SDS011;44895;47.438;18.978;2023-11-19T17:10:29;37.03;;;23.63;;
59109;SDS011;44895;47.438;18.978;2023-11-19T17:13:33;35.70;;;24.20;;
59109;SDS011;44895;47.438;18.978;2023-11-19T17:16:38;30.20;;;23.88;;
59109;SDS011;44895;47.438;18.978;2023-11-19T17:19:43;38.88;;;26.25;;
59109;SDS011;44895;47.438;18.978;2023-11-19T17:22:46;40.10;;;28.80;;
59109;SDS011;44895;47.438;18.978;2023-11-19T17:25:52;54.10;;;32.20;;
59109;SDS011;44895;47.438;18.978;2023-11-19T17:28:56;72.15;;;40.65;;
59109;SDS011;44895;47.438;18.978;2023-11-19T17:32:01;56.88;;;37.75;;
59109;SDS011;44895;47.438;18.978;2023-11-19T17:35:05;43.72;;;30.38;;
59109;SDS011;44895;47.438;18.978;2023-11-19T17:38:09;45.60;;;31.17;;
59109;SDS011;44895;47.438;18.978;2023-11-19T17:41:13;39.75;;;26.10;;
59109;SDS011;44895;47.438;18.978;2023-11-19T17:44:16;35.45;;;22.98;;
59109;SDS011;44895;47.438;18.978;2023-11-19T17:47:21;30.98;;;21.15;;
59109;SDS011;44895;47.438;18.978;2023-11-19T17:50:25;33.05;;;19.40;;
59109;SDS011;44895;47.438;18.978;2023-11-19T17:53:28;30.40;;;21.40;;
59109;SDS011;44895;47.438;18.978;2023-11-19T17:56:32;31.13;;;19.17;;
59109;SDS011;44895;47.438;18.978;2023-11-19T17:59:35;29.33;;;18.42;;
59109;SDS011;44895;47.438;18.978;2023-11-19T18:02:43;28.33;;;19.35;;
59109;SDS011;44895;47.438;18.978;2023-11-19T18:05:48;29.02;;;19.65;;
59109;SDS011;44895;47.438;18.978;2023-11-19T18:08:52;31.10;;;20.70;;
59109;SDS011;44895;47.438;18.978;2023-11-19T18:11:55;37.03;;;21.52;;
59109;SDS011;44895;47.438;18.978;2023-11-19T18:14:59;28.63;;;19.15;;
59109;SDS011;44895;47.438;18.978;2023-11-19T18:18:03;33.45;;;23.67;;
59109;SDS011;44895;47.438;18.978;2023-11-19T18:21:07;27.73;;;19.55;;
59109;SDS011;44895;47.438;18.978;2023-11-19T18:24:11;29.83;;;19.50;;
59109;SDS011;44895;47.438;18.978;2023-11-19T18:27:14;31.75;;;20.25;;
59109;SDS011;44895;47.438;18.978;2023-11-19T18:30:21;31.85;;;17.95;;
59109;SDS011;44895;47.438;18.978;2023-11-19T18:33:26;28.25;;;20.60;;
59109;SDS011;44895;47.438;18.978;2023-11-19T18:36:34;26.17;;;19.00;;
59109;SDS011;44895;47.438;18.978;2023-11-19T18:39:40;26.73;;;17.70;;
59109;SDS011;44895;47.438;18.978;2023-11-19T18:42:45;23.70;;;17.45;;
59109;SDS011;44895;47.438;18.978;2023-11-19T18:45:51;27.98;;;17.60;;
59109;SDS011;44895;47.438;18.978;2023-11-19T18:48:56;25.70;;;16.48;;
59109;SDS011;44895;47.438;18.978;2023-11-19T18:52:02;25.80;;;19.48;;
59109;SDS011;44895;47.438;18.978;2023-11-19T18:55:07;35.08;;;21.95;;
59109;SDS011;44895;47.438;18.978;2023-11-19T18:58:13;31.30;;;23.40;;
59109;SDS011;44895;47.438;18.978;2023-11-19T19:01:19;31.95;;;22.10;;
59109;SDS011;44895;47.438;18.978;2023-11-19T19:04:25;31.33;;;21.60;;
59109;SDS011;44895;47.438;18.978;2023-11-19T19:07:32;37.35;;;25.35;;
59109;SDS011;44895;47.438;18.978;2023-11-19T19:10:37;39.80;;;24.58;;
59109;SDS011;44895;47.438;18.978;2023-11-19T19:13:42;32.78;;;23.42;;
59109;SDS011;44895;47.438;18.978;2023-11-19T19:16:47;33.35;;;22.85;;
59109;SDS011;44895;47.438;18.978;2023-11-19T19:19:52;31.92;;;23.75;;
59109;SDS011;44895;47.438;18.978;2023-11-19T19:22:57;28.52;;;20.02;;
59109;SDS011;44895;47.438;18.978;2023-11-19T19:26:02;26.90;;;21.17;;
59109;SDS011;44895;47.438;18.978;2023-11-19T19:29:09;30.52;;;19.75;;
59109;SDS011;44895;47.438;18.978;2023-11-19T19:35:19;23.23;;;18.45;;
59109;SDS011;44895;47.438;18.978;2023-11-19T19:38:25;29.05;;;18.52;;
59109;SDS011;44895;47.438;18.978;2023-11-19T19:41:29;26.27;;;18.08;;
59109;SDS011;44895;47.438;18.978;2023-11-19T19:44:33;31.80;;;19.42;;
59109;SDS011;44895;47.438;18.978;2023-11-19T19:47:37;27.73;;;17.75;;
59109;SDS011;44895;47.438;18.978;2023-11-19T19:50:41;23.63;;;17.10;;
59109;SDS011;44895;47.438;18.978;2023-11-19T19:53:46;26.90;;;19.63;;
59109;SDS011;44895;47.438;18.978;2023-11-19T19:56:49;22.67;;;18.05;;
59109;SDS011;44895;47.438;18.978;2023-11-19T19:59:53;26.13;;;16.48;;
59109;SDS011;44895;47.438;18.978;2023-11-19T20:02:57;24.45;;;18.30;;
59109;SDS011;44895;47.438;18.978;2023-11-19T20:06:01;22.58;;;16.77;;
59109;SDS011;44895;47.438;18.978;2023-11-19T20:09:07;21.05;;;16.65;;
59109;SDS011;44895;47.438;18.978;2023-11-19T20:12:11;22.00;;;15.18;;
59109;SDS011;44895;47.438;18.978;2023-11-19T20:15:15;23.75;;;15.90;;
59109;SDS011;44895;47.438;18.978;2023-11-19T20:18:23;19.73;;;14.43;;
59109;SDS011;44895;47.438;18.978;2023-11-19T20:21:27;22.45;;;14.32;;
59109;SDS011;44895;47.438;18.978;2023-11-19T20:24:30;30.23;;;15.75;;
59109;SDS011;44895;47.438;18.978;2023-11-19T20:27:34;20.13;;;15.38;;
59109;SDS011;44895;47.438;18.978;2023-11-19T20:30:38;22.33;;;16.08;;
59109;SDS011;44895;47.438;18.978;2023-11-19T20:33:41;19.02;;;12.77;;
59109;SDS011;44895;47.438;18.978;2023-11-19T20:36:45;21.23;;;15.98;;
59109;SDS011;44895;47.438;18.978;2023-11-19T20:39:48;21.27;;;13.77;;
59109;SDS011;44895;47.438;18.978;2023-11-19T20:42:52;27.35;;;16.98;;
59109;SDS011;44895;47.438;18.978;2023-11-19T20:45:56;22.85;;;16.15;;
59109;SDS011;44895;47.438;18.978;2023-11-19T20:49:00;24.65;;;16.38;;
59109;SDS011;44895;47.438;18.978;2023-11-19T20:52:03;24.63;;;16.58;;
59109;SDS011;44895;47.438;18.978;2023-11-19T20:55:07;24.02;;;15.98;;
59109;SDS011;44895;47.438;18.978;2023-11-19T20:58:14;22.10;;;17.02;;
59109;SDS011;44895;47.438;18.978;2023-11-19T21:01:18;22.95;;;16.55;;
59109;SDS011;44895;47.438;18.978;2023-11-19T21:04:22;22.17;;;14.48;;
59109;SDS011;44895;47.438;18.978;2023-11-19T21:07:27;24.50;;;18.25;;
59109;SDS011;44895;47.438;18.978;2023-11-19T21:10:31;22.38;;;15.63;;
59109;SDS011;44895;47.438;18.978;2023-11-19T21:13:35;20.90;;;14.52;;
59109;SDS011;44895;47.438;18.978;2023-11-19T21:16:39;19.70;;;14.50;;
59109;SDS011;44895;47.438;18.978;2023-11-19T21:19:42;19.55;;;14.13;;
59109;SDS011;44895;47.438;18.978;2023-11-19T21:22:46;20.83;;;14.93;;
59109;SDS011;44895;47.438;18.978;2023-11-19T21:25:50;19.23;;;13.88;;
59109;SDS011;44895;47.438;18.978;2023-11-19T21:28:53;19.77;;;14.88;;
59109;SDS011;44895;47.438;18.978;2023-11-19T21:31:57;19.30;;;14.23;;
59109;SDS011;44895;47.438;18.978;2023-11-19T21:35:01;16.73;;;12.40;;
59109;SDS011;44895;47.438;18.978;2023-11-19T21:38:05;18.80;;;12.05;;
59109;SDS011;44895;47.438;18.978;2023-11-19T21:41:09;18.88;;;12.73;;
59109;SDS011;44895;47.438;18.978;2023-11-19T21:44:14;19.33;;;12.15;;
59109;SDS011;44895;47.438;18.978;2023-11-19T21:47:17;18.25;;;13.30;;
59109;SDS011;44895;47.438;18.978;2023-11-19T21:50:21;21.92;;;12.02;;
59109;SDS011;44895;47.438;18.978;2023-11-19T21:53:25;17.33;;;12.02;;
59109;SDS011;44895;47.438;18.978;2023-11-19T21:56:28;16.10;;;10.73;;
59109;SDS011;44895;47.438;18.978;2023-11-19T21:59:32;16.50;;;11.40;;
59109;SDS011;44895;47.438;18.978;2023-11-19T22:02:36;16.90;;;11.23;;
59109;SDS011;44895;47.438;18.978;2023-11-19T22:05:40;18.90;;;11.93;;
59109;SDS011;44895;47.438;18.978;2023-11-19T22:08:44;19.05;;;13.23;;
59109;SDS011;44895;47.438;18.978;2023-11-19T22:11:48;25.67;;;14.75;;
59109;SDS011;44895;47.438;18.978;2023-11-19T22:14:53;20.17;;;12.90;;
59109;SDS011;44895;47.438;18.978;2023-11-19T22:17:56;23.05;;;13.25;;
59109;SDS011;44895;47.438;18.978;2023-11-19T22:21:00;19.65;;;12.77;;
59109;SDS011;44895;47.438;18.978;2023-11-19T22:24:04;19.45;;;14.95;;
59109;SDS011;44895;47.438;18.978;2023-11-19T22:27:08;17.75;;;12.07;;
59109;SDS011;44895;47.438;18.978;2023-11-19T22:30:13;21.55;;;13.13;;
59109;SDS011;44895;47.438;18.978;2023-11-19T22:33:17;17.60;;;12.80;;
59109;SDS011;44895;47.438;18.978;2023-11-19T22:36:20;18.90;;;13.18;;
59109;SDS011;44895;47.438;18.978;2023-11-19T22:39:25;26.27;;;16.95;;
59109;SDS011;44895;47.438;18.978;2023-11-19T22:42:29;24.33;;;18.50;;
59109;SDS011;44895;47.438;18.978;2023-11-19T22:45:33;26.60;;;19.30;;
59109;SDS011;44895;47.438;18.978;2023-11-19T22:48:37;31.85;;;20.35;;
59109;SDS011;44895;47.438;18.978;2023-11-19T22:51:40;24.67;;;17.58;;
59109;SDS011;44895;47.438;18.978;2023-11-19T22:54:44;25.98;;;19.55;;
59109;SDS011;44895;47.438;18.978;2023-11-19T22:57:48;25.70;;;20.42;;
59109;SDS011;44895;47.438;18.978;2023-11-19T23:00:52;28.80;;;18.70;;
59109;SDS011;44895;47.438;18.978;2023-11-19T23:03:56;26.13;;;19.50;;
59109;SDS011;44895;47.438;18.978;2023-11-19T23:07:00;29.67;;;20.42;;
59109;SDS011;44895;47.438;18.978;2023-11-19T23:10:04;30.25;;;21.25;;
59109;SDS011;44895;47.438;18.978;2023-11-19T23:13:08;28.98;;;18.88;;
59109;SDS011;44895;47.438;18.978;2023-11-19T23:16:12;22.00;;;15.98;;
59109;SDS011;44895;47.438;18.978;2023-11-19T23:19:19;23.92;;;17.38;;
59109;SDS011;44895;47.438;18.978;2023-11-19T23:22:23;23.90;;;15.93;;
59109;SDS011;44895;47.438;18.978;2023-11-19T23:25:26;21.35;;;15.98;;
59109;SDS011;44895;47.438;18.978;2023-11-19T23:28:30;23.65;;;16.63;;
59109;SDS011;44895;47.438;18.978;2023-11-19T23:31:34;23.05;;;17.20;;
59109;SDS011;44895;47.438;18.978;2023-11-19T23:34:38;25.65;;;17.60;;
59109;SDS011;44895;47.438;18.978;2023-11-19T23:37:41;29.98;;;17.77;;
59109;SDS011;44895;47.438;18.978;2023-11-19T23:40:47;27.00;;;19.55;;
59109;SDS011;44895;47.438;18.978;2023-11-19T23:43:51;21.70;;;17.23;;
59109;SDS011;44895;47.438;18.978;2023-11-19T23:46:55;22.80;;;17.00;;
59109;SDS011;44895;47.438;18.978;2023-11-19T23:49:58;23.38;;;16.08;;
59109;SDS011;44895;47.438;18.978;2023-11-19T23:53:02;22.05;;;15.82;;
59109;SDS011;44895;47.438;18.978;2023-11-19T23:56:06;26.48;;;16.50;;
59109;SDS011;44895;47.438;18.978;2023-11-19T23:59:10;18.23;;;13.45;;
